Time;durP1;ratioP1;P1;durP2;ratioP2;P2;SDS_P1;SDS_P2;PMS_P1;PMS_P2;Temp;Humidity;BMP_temperature;BMP_pressure;BME280_temperature;BME280_humidity;BME280_pressure;Samples;Min_cycle;Max_cycle;Signal;HPM_P1;HPM_P2
2021/01/29 00:00:17;;;;;;;3.28;2.03;;;;;;;;;;5130685;27;20225;-67
2021/01/29 00:02:43;;;;;;;2.55;2.35;;;;;;;;;;5131084;27;20027;-67
2021/01/29 00:05:09;;;;;;;3.45;3.05;;;;;;;;;;5130337;27;20051;-67
2021/01/29 00:07:35;;;;;;;2.45;2.15;;;;;;;;;;5131579;27;20023;-67
2021/01/29 00:10:02;;;;;;;2.92;2.65;;;;;;;;;;5129941;27;20058;-67
2021/01/29 00:12:28;;;;;;;2.88;2.17;;;;;;;;;;5131456;27;20031;-67
2021/01/29 00:14:54;;;;;;;2.92;2.40;;;;;;;;;;5131750;27;20397;-67
2021/01/29 00:17:20;;;;;;;3.80;2.55;;;;;;;;;;5130269;27;20023;-67
2021/01/29 00:19:46;;;;;;;2.53;1.80;;;;;;;;;;5131219;28;20027;-67
2021/01/29 00:22:12;;;;;;;4.60;3.42;;;;;;;;;;5130823;28;20423;-67
2021/01/29 00:24:38;;;;;;;3.85;2.58;;;;;;;;;;5131185;28;20035;-67
2021/01/29 00:27:04;;;;;;;2.80;2.42;;;;;;;;;;5130422;28;20055;-67
2021/01/29 00:29:31;;;;;;;3.22;2.90;;;;;;;;;;5131272;28;20037;-67
2021/01/29 00:31:57;;;;;;;3.08;2.78;;;;;;;;;;5130568;28;20028;-67
2021/01/29 00:34:23;;;;;;;3.30;2.30;;;;;;;;;;5131192;28;20023;-67
2021/01/29 00:36:49;;;;;;;3.70;3.10;;;;;;;;;;5131036;28;20499;-67
2021/01/29 00:39:15;;;;;;;2.00;1.85;;;;;;;;;;5110027;28;20143;-67
2021/01/29 00:41:42;;;;;;;4.30;2.97;;;;;;;;;;5110553;28;20028;-67
2021/01/29 00:44:08;;;;;;;2.83;1.98;;;;;;;;;;5109982;28;20063;-67
2021/01/29 00:46:34;;;;;;;2.67;2.47;;;;;;;;;;5111094;28;20046;-67
2021/01/29 00:49:00;;;;;;;6.30;2.75;;;;;;;;;;5109469;28;20030;-67
2021/01/29 00:51:26;;;;;;;4.93;2.42;;;;;;;;;;5110453;28;20095;-67
2021/01/29 00:53:52;;;;;;;3.25;2.08;;;;;;;;;;5110098;28;20035;-67
2021/01/29 00:56:18;;;;;;;2.33;2.13;;;;;;;;;;5109937;28;20039;-67
2021/01/29 00:58:44;;;;;;;2.38;1.98;;;;;;;;;;5110623;28;20498;-67
2021/01/29 01:01:10;;;;;;;3.08;2.67;;;;;;;;;;5109212;28;20489;-67
2021/01/29 01:03:36;;;;;;;3.08;2.20;;;;;;;;;;5111067;28;20023;-67
2021/01/29 01:06:03;;;;;;;2.70;2.35;;;;;;;;;;5122263;27;20035;-67
2021/01/29 01:08:29;;;;;;;3.72;1.98;;;;;;;;;;5130958;28;20111;-67
2021/01/29 01:10:55;;;;;;;2.70;2.05;;;;;;;;;;5119207;28;20042;-67
2021/01/29 01:13:21;;;;;;;2.90;1.90;;;;;;;;;;5110162;28;20580;-67
2021/01/29 01:15:48;;;;;;;2.38;2.00;;;;;;;;;;5111285;28;20038;-67
2021/01/29 01:18:14;;;;;;;2.58;2.38;;;;;;;;;;5113483;28;20034;-67
2021/01/29 01:20:40;;;;;;;2.45;1.85;;;;;;;;;;5113928;28;20441;-67
2021/01/29 01:23:06;;;;;;;2.75;1.80;;;;;;;;;;5113738;28;20019;-67
2021/01/29 01:25:32;;;;;;;2.22;1.95;;;;;;;;;;5114316;28;20023;-67
2021/01/29 01:27:58;;;;;;;2.80;1.60;;;;;;;;;;5113490;28;20028;-67
2021/01/29 01:30:29;;;;;;;2.33;2.13;;;;;;;;;;5113645;28;20088;-67
2021/01/29 01:32:55;;;;;;;2.40;1.98;;;;;;;;;;5113931;28;20027;-67
2021/01/29 01:35:22;;;;;;;2.85;1.70;;;;;;;;;;5113757;28;20028;-67
2021/01/29 01:37:48;;;;;;;2.00;1.80;;;;;;;;;;5113269;28;20398;-67
2021/01/29 01:40:15;;;;;;;2.08;1.88;;;;;;;;;;5113134;28;20606;-67
2021/01/29 01:42:42;;;;;;;2.33;1.63;;;;;;;;;;5113951;28;20045;-67
2021/01/29 01:45:40;;;;;;;4.18;2.83;;;;;;;;;;5113120;28;20042;-67
2021/01/29 01:48:12;;;;;;;2.55;2.35;;;;;;;;;;5057109;28;20558;-67
2021/01/29 01:50:40;;;;;;;2.13;1.92;;;;;;;;;;5113494;28;20020;-67
2021/01/29 01:53:13;;;;;;;4.72;1.38;;;;;;;;;;5118865;27;20062;-67
2021/01/29 01:55:39;;;;;;;1.70;1.60;;;;;;;;;;5133852;27;20488;-67
2021/01/29 01:58:06;;;;;;;2.55;2.22;;;;;;;;;;5133526;27;20027;-67
2021/01/29 02:00:32;;;;;;;5.60;1.38;;;;;;;;;;5134033;27;20019;-67
2021/01/29 02:03:04;;;;;;;1.33;1.05;;;;;;;;;;5133540;27;20035;-67
2021/01/29 02:05:35;;;;;;;2.08;1.50;;;;;;;;;;5133026;27;20485;-67
2021/01/29 02:08:05;;;;;;;1.58;1.40;;;;;;;;;;5133036;27;20023;-67
2021/01/29 02:10:32;;;;;;;1.85;1.20;;;;;;;;;;5133187;27;20027;-67
2021/01/29 02:12:59;;;;;;;1.30;1.02;;;;;;;;;;5132890;27;20050;-67
2021/01/29 02:15:27;;;;;;;2.13;1.55;;;;;;;;;;5133500;27;20450;-67
2021/01/29 02:17:53;;;;;;;0.98;0.98;;;;;;;;;;5133781;27;20023;-67
2021/01/29 02:20:25;;;;;;;1.50;1.40;;;;;;;;;;5132421;27;20049;-66
2021/01/29 02:22:54;;;;;;;2.05;1.65;;;;;;;;;;5133363;27;20485;-67
2021/01/29 02:25:39;;;;;;;1.58;1.48;;;;;;;;;;5132900;27;20039;-67
2021/01/29 02:28:07;;;;;;;1.65;1.55;;;;;;;;;;5132056;27;20027;-67
2021/01/29 02:30:39;;;;;;;2.03;1.75;;;;;;;;;;5133159;27;20420;-67
2021/01/29 02:33:12;;;;;;;1.30;1.20;;;;;;;;;;5132335;27;20027;-67
2021/01/29 02:35:38;;;;;;;1.95;1.60;;;;;;;;;;5133174;27;20040;-67
2021/01/29 02:38:22;;;;;;;1.33;1.23;;;;;;;;;;5122039;27;20034;-67
2021/01/29 02:40:57;;;;;;;1.65;1.02;;;;;;;;;;5112458;28;20073;-67
2021/01/29 02:43:32;;;;;;;3.15;1.63;;;;;;;;;;5112306;28;20103;-67
2021/01/29 02:46:17;;;;;;;3.30;1.10;;;;;;;;;;5111862;28;20550;-67
2021/01/29 02:49:00;;;;;;;1.10;1.00;;;;;;;;;;5112633;28;20028;-67
2021/01/29 02:51:26;;;;;;;1.05;1.02;;;;;;;;;;5112192;28;20385;-67
2021/01/29 02:53:59;;;;;;;1.88;1.35;;;;;;;;;;5111997;28;20354;-67
2021/01/29 02:56:33;;;;;;;1.77;1.13;;;;;;;;;;5112569;28;20031;-67
2021/01/29 02:59:02;;;;;;;1.13;1.02;;;;;;;;;;5111661;28;20503;-67
2021/01/29 03:01:28;;;;;;;5.22;1.67;;;;;;;;;;5112141;28;20023;-67
2021/01/29 03:03:57;;;;;;;2.25;1.13;;;;;;;;;;5111608;28;20485;-67
2021/01/29 03:06:30;;;;;;;1.65;1.23;;;;;;;;;;5127197;27;20043;-67
2021/01/29 03:08:58;;;;;;;3.88;1.35;;;;;;;;;;5132414;27;20085;-67
2021/01/29 03:11:44;;;;;;;5.47;1.33;;;;;;;;;;5116253;27;20124;-67
2021/01/29 03:14:14;;;;;;;1.75;1.05;;;;;;;;;;5069884;28;20039;-67
2021/01/29 03:16:48;;;;;;;2.22;1.98;;;;;;;;;;5111502;28;20032;-67
2021/01/29 03:19:31;;;;;;;2.40;2.03;;;;;;;;;;5111053;28;20027;-67
2021/01/29 03:21:59;;;;;;;1.40;1.30;;;;;;;;;;5111929;28;20486;-67
2021/01/29 03:24:37;;;;;;;1.55;1.20;;;;;;;;;;5111174;28;20058;-67
2021/01/29 03:27:26;;;;;;;1.63;1.23;;;;;;;;;;5110969;28;20038;-67
2021/01/29 03:29:57;;;;;;;2.15;1.40;;;;;;;;;;5095212;28;20490;-67
2021/01/29 03:32:24;;;;;;;1.40;1.30;;;;;;;;;;5111795;28;20573;-67
2021/01/29 03:35:09;;;;;;;3.17;1.58;;;;;;;;;;5110981;28;20055;-66
2021/01/29 03:37:45;;;;;;;2.10;1.05;;;;;;;;;;5111319;28;20027;-67
2021/01/29 03:40:12;;;;;;;2.95;1.52;;;;;;;;;;5110274;28;20062;-67
2021/01/29 03:42:43;;;;;;;1.45;1.17;;;;;;;;;;5111526;28;20054;-67
2021/01/29 03:45:23;;;;;;;1.13;0.93;;;;;;;;;;5110127;28;20027;-67
2021/01/29 03:47:51;;;;;;;2.85;1.33;;;;;;;;;;5111305;28;20020;-66
2021/01/29 03:50:23;;;;;;;2.35;0.80;;;;;;;;;;5110776;28;20108;-67
2021/01/29 03:53:08;;;;;;;3.13;1.33;;;;;;;;;;5115005;27;20041;-67
2021/01/29 03:55:57;;;;;;;0.93;0.75;;;;;;;;;;5131666;27;20553;-67
2021/01/29 03:58:50;;;;;;;1.40;1.23;;;;;;;;;;5131070;27;20027;-67
2021/01/29 04:01:34;;;;;;;2.45;1.27;;;;;;;;;;5126287;27;20435;-67
2021/01/29 04:04:00;;;;;;;1.13;1.05;;;;;;;;;;5131144;27;20027;-67
2021/01/29 04:06:28;;;;;;;1.13;1.02;;;;;;;;;;5131020;27;20058;-67
2021/01/29 04:09:09;;;;;;;2.15;1.45;;;;;;;;;;5131541;27;20488;-67
2021/01/29 04:11:40;;;;;;;1.38;1.17;;;;;;;;;;5131185;27;20035;-67
2021/01/29 04:14:09;;;;;;;2.03;1.45;;;;;;;;;;5113962;28;20046;-67
2021/01/29 04:16:40;;;;;;;3.25;1.60;;;;;;;;;;5110664;28;20024;-67
2021/01/29 04:19:11;;;;;;;1.48;0.93;;;;;;;;;;5109593;28;20031;-67
2021/01/29 04:21:43;;;;;;;1.52;1.25;;;;;;;;;;5110907;28;20092;-67
2021/01/29 04:24:15;;;;;;;1.75;1.00;;;;;;;;;;5110328;28;20031;-67
2021/01/29 04:27:04;;;;;;;1.38;1.27;;;;;;;;;;5110089;28;20031;-67
2021/01/29 04:29:41;;;;;;;0.77;0.77;;;;;;;;;;5110483;28;20077;-67
2021/01/29 04:32:11;;;;;;;1.70;0.95;;;;;;;;;;5109353;28;20032;-67
2021/01/29 04:34:39;;;;;;;1.20;1.15;;;;;;;;;;5110996;28;20051;-67
2021/01/29 04:37:08;;;;;;;1.20;0.82;;;;;;;;;;5110955;28;20103;-67
2021/01/29 04:39:37;;;;;;;2.50;1.17;;;;;;;;;;5131241;28;20075;-67
2021/01/29 04:42:09;;;;;;;2.25;1.50;;;;;;;;;;5130464;28;20027;-67
2021/01/29 04:44:52;;;;;;;1.40;1.30;;;;;;;;;;5131280;28;20034;-67
2021/01/29 04:47:21;;;;;;;1.37;1.27;;;;;;;;;;5130290;28;20035;-67
2021/01/29 04:49:56;;;;;;;1.50;1.35;;;;;;;;;;5131468;27;20168;-67
2021/01/29 04:52:40;;;;;;;0.80;0.80;;;;;;;;;;5135045;27;20537;-67
2021/01/29 04:55:09;;;;;;;1.48;0.88;;;;;;;;;;5134583;27;20410;-67
2021/01/29 04:57:50;;;;;;;1.10;0.85;;;;;;;;;;5134972;27;20212;-67
2021/01/29 05:00:41;;;;;;;0.77;0.77;;;;;;;;;;5134023;27;20023;-67
2021/01/29 05:03:13;;;;;;;4.13;1.42;;;;;;;;;;5134699;27;20024;-67
2021/01/29 05:05:58;;;;;;;5.00;1.63;;;;;;;;;;5134723;27;20058;-66
2021/01/29 05:08:37;;;;;;;1.67;1.20;;;;;;;;;;5134263;27;20027;-67
2021/01/29 05:11:14;;;;;;;1.85;0.90;;;;;;;;;;5121393;27;20085;-67
2021/01/29 05:14:06;;;;;;;1.33;1.08;;;;;;;;;;5114405;28;20038;-67
2021/01/29 05:16:32;;;;;;;1.10;1.00;;;;;;;;;;5083145;28;20039;-67
2021/01/29 05:19:07;;;;;;;1.73;1.38;;;;;;;;;;5113433;28;20035;-67
2021/01/29 05:21:39;;;;;;;1.02;0.90;;;;;;;;;;5113851;28;20414;-67
2021/01/29 05:24:05;;;;;;;2.13;1.17;;;;;;;;;;5112949;28;20027;-67
2021/01/29 05:26:41;;;;;;;1.30;1.20;;;;;;;;;;5114142;28;20023;-68
2021/01/29 05:29:24;;;;;;;1.23;1.13;;;;;;;;;;5113248;28;20024;-67
2021/01/29 05:31:53;;;;;;;1.33;1.10;;;;;;;;;;5113856;28;20036;-67
2021/01/29 05:34:37;;;;;;;1.38;1.27;;;;;;;;;;5112575;28;20035;-67
2021/01/29 05:37:22;;;;;;;1.73;1.30;;;;;;;;;;5112981;28;20023;-67
2021/01/29 05:39:48;;;;;;;1.48;0.82;;;;;;;;;;5113540;28;20106;-67
2021/01/29 05:42:37;;;;;;;1.15;1.08;;;;;;;;;;5112478;28;20027;-67
2021/01/29 05:45:15;;;;;;;1.23;1.13;;;;;;;;;;5112883;28;20063;-67
2021/01/29 05:48:00;;;;;;;0.50;0.50;;;;;;;;;;5113811;28;20051;-67
2021/01/29 05:50:44;;;;;;;0.80;0.75;;;;;;;;;;5113360;28;20032;-67
2021/01/29 05:53:16;;;;;;;1.02;0.80;;;;;;;;;;5119198;27;20126;-67
2021/01/29 05:55:49;;;;;;;0.77;0.70;;;;;;;;;;5134186;27;20058;-67
2021/01/29 05:58:15;;;;;;;0.93;0.80;;;;;;;;;;5133144;27;20110;-67
2021/01/29 06:00:43;;;;;;;0.95;0.88;;;;;;;;;;5133409;27;20058;-67
2021/01/29 06:03:28;;;;;;;1.40;1.30;;;;;;;;;;5131740;27;20022;-67
2021/01/29 06:06:13;;;;;;;1.30;1.13;;;;;;;;;;5133136;27;20050;-67
2021/01/29 06:08:56;;;;;;;2.25;1.17;;;;;;;;;;5133711;27;20027;-67
2021/01/29 06:11:41;;;;;;;1.48;1.30;;;;;;;;;;5133077;27;20031;-67
2021/01/29 06:14:26;;;;;;;4.88;1.88;;;;;;;;;;5132195;27;20401;-67
2021/01/29 06:16:55;;;;;;;1.95;1.40;;;;;;;;;;5133764;27;20027;-67
2021/01/29 06:19:21;;;;;;;1.13;0.95;;;;;;;;;;5133264;27;20110;-67
2021/01/29 06:21:47;;;;;;;1.13;1.02;;;;;;;;;;5132942;27;20034;-67
2021/01/29 06:24:25;;;;;;;1.00;1.00;;;;;;;;;;5132243;27;20034;-67
2021/01/29 06:27:10;;;;;;;0.82;0.82;;;;;;;;;;5133289;27;20027;-67
2021/01/29 06:29:48;;;;;;;1.23;1.08;;;;;;;;;;5133357;27;20031;-67
2021/01/29 06:32:14;;;;;;;2.53;1.30;;;;;;;;;;5132552;27;20035;-67
2021/01/29 06:34:55;;;;;;;2.13;1.20;;;;;;;;;;5133255;27;20121;-67
2021/01/29 06:37:40;;;;;;;0.73;0.73;;;;;;;;;;5128370;27;20032;-67
2021/01/29 06:40:15;;;;;;;4.38;1.55;;;;;;;;;;5111681;28;20489;-67
2021/01/29 06:42:47;;;;;;;1.33;0.90;;;;;;;;;;5112431;28;20107;-67
2021/01/29 06:45:32;;;;;;;1.33;1.15;;;;;;;;;;5110823;28;20034;-67
2021/01/29 06:48:05;;;;;;;10.88;1.90;;;;;;;;;;5111701;28;20023;-67
2021/01/29 06:50:49;;;;;;;2.90;2.00;;;;;;;;;;5112594;28;20131;-66
2021/01/29 06:53:18;;;;;;;4.25;1.27;;;;;;;;;;5111579;28;20048;-67
2021/01/29 06:56:00;;;;;;;2.13;1.20;;;;;;;;;;5106493;28;20015;-67
2021/01/29 06:58:35;;;;;;;3.75;1.63;;;;;;;;;;5110574;28;20031;-67
2021/01/29 07:01:13;;;;;;;2.45;1.15;;;;;;;;;;5108423;28;20035;-67
2021/01/29 07:04:03;;;;;;;1.35;1.13;;;;;;;;;;5110450;28;20027;-67
2021/01/29 07:06:44;;;;;;;2.95;1.65;;;;;;;;;;5079076;28;20109;-66
2021/01/29 07:09:10;;;;;;;3.15;2.15;;;;;;;;;;5109063;28;20023;-66
2021/01/29 07:11:52;;;;;;;7.80;3.15;;;;;;;;;;5110017;28;20047;-66
2021/01/29 07:14:33;;;;;;;5.35;1.95;;;;;;;;;;5107565;28;20098;-66
2021/01/29 07:17:18;;;;;;;4.28;3.33;;;;;;;;;;5109706;28;20069;-66
2021/01/29 07:19:53;;;;;;;3.15;2.50;;;;;;;;;;5109352;28;20020;-66
2021/01/29 07:22:37;;;;;;;7.82;3.30;;;;;;;;;;5106897;28;20026;-66
2021/01/29 07:25:20;;;;;;;2.53;2.08;;;;;;;;;;5108686;28;20031;-67
2021/01/29 07:27:59;;;;;;;4.13;3.10;;;;;;;;;;5107964;28;20523;-67
2021/01/29 07:30:48;;;;;;;4.30;2.60;;;;;;;;;;5106596;28;20128;-67
2021/01/29 07:33:36;;;;;;;3.80;1.95;;;;;;;;;;5099394;28;20048;-67
2021/01/29 07:36:08;;;;;;;3.30;2.15;;;;;;;;;;5103883;28;20028;-67
2021/01/29 07:38:54;;;;;;;3.75;3.13;;;;;;;;;;5101906;28;20574;-66
2021/01/29 07:41:20;;;;;;;4.43;2.60;;;;;;;;;;5094811;28;20034;-67
2021/01/29 07:44:05;;;;;;;6.03;2.65;;;;;;;;;;5103391;27;20019;-67
2021/01/29 07:46:32;;;;;;;4.03;2.28;;;;;;;;;;5109494;28;20374;-66
2021/01/29 07:49:17;;;;;;;4.13;2.85;;;;;;;;;;5122070;27;20040;-66
2021/01/29 07:51:49;;;;;;;3.15;2.80;;;;;;;;;;5106489;28;20039;-66
2021/01/29 07:54:21;;;;;;;3.78;2.47;;;;;;;;;;5103213;28;20530;-66
2021/01/29 07:57:06;;;;;;;3.08;1.83;;;;;;;;;;5107702;28;20539;-67
2021/01/29 07:59:50;;;;;;;2.53;2.05;;;;;;;;;;5108654;28;20016;-66
2021/01/29 08:02:22;;;;;;;3.85;2.15;;;;;;;;;;5102150;28;20117;-66
2021/01/29 08:04:51;;;;;;;2.35;2.10;;;;;;;;;;5100184;27;20043;-67
2021/01/29 08:07:24;;;;;;;6.55;2.35;;;;;;;;;;5097072;27;20031;-66
2021/01/29 08:09:55;;;;;;;3.15;2.25;;;;;;;;;;5106989;28;20039;-69
2021/01/29 08:12:22;;;;;;;1.90;1.70;;;;;;;;;;5101687;28;20683;-67
2021/01/29 08:14:52;;;;;;;5.93;2.90;;;;;;;;;;5107621;28;20418;-66
2021/01/29 08:17:24;;;;;;;2.63;2.03;;;;;;;;;;5101094;28;20469;-66
2021/01/29 08:19:50;;;;;;;2.83;2.50;;;;;;;;;;5107229;28;20024;-66
2021/01/29 08:22:34;;;;;;;6.00;2.60;;;;;;;;;;5105924;28;20038;-66
2021/01/29 08:25:22;;;;;;;5.32;2.28;;;;;;;;;;5111008;28;20473;-66
2021/01/29 08:27:57;;;;;;;2.97;2.38;;;;;;;;;;5109407;28;20103;-66
2021/01/29 08:30:44;;;;;;;3.50;2.42;;;;;;;;;;5107109;28;20651;-68
2021/01/29 08:33:19;;;;;;;4.75;1.83;;;;;;;;;;5054477;28;20051;-67
2021/01/29 08:35:57;;;;;;;4.75;2.38;;;;;;;;;;5099146;28;20024;-67
2021/01/29 08:38:26;;;;;;;4.18;1.90;;;;;;;;;;5106950;28;20027;-69
2021/01/29 08:41:01;;;;;;;2.65;2.33;;;;;;;;;;5087959;28;20404;-67
2021/01/29 08:43:45;;;;;;;2.03;1.83;;;;;;;;;;5102638;28;20370;-67
2021/01/29 08:46:30;;;;;;;5.68;3.17;;;;;;;;;;5101850;28;20028;-66
2021/01/29 08:49:24;;;;;;;3.55;1.80;;;;;;;;;;5095553;28;20075;-66
2021/01/29 08:52:00;;;;;;;1.60;1.45;;;;;;;;;;5098653;28;20032;-66
2021/01/29 08:54:34;;;;;;;2.80;2.33;;;;;;;;;;5104606;28;20043;-66
2021/01/29 08:57:04;;;;;;;2.33;1.80;;;;;;;;;;5106614;28;20043;-66
2021/01/29 08:59:35;;;;;;;2.63;1.70;;;;;;;;;;5107567;28;20016;-66
2021/01/29 09:02:01;;;;;;;4.85;2.88;;;;;;;;;;5103418;28;20027;-67
2021/01/29 09:04:35;;;;;;;4.85;2.60;;;;;;;;;;5105688;28;20028;-68
2021/01/29 09:07:02;;;;;;;2.58;1.85;;;;;;;;;;5129529;27;20075;-67
2021/01/29 09:09:31;;;;;;;2.70;2.33;;;;;;;;;;5133679;27;20091;-67
2021/01/29 09:12:01;;;;;;;4.85;2.30;;;;;;;;;;5133946;27;20466;-67
2021/01/29 09:14:35;;;;;;;4.18;2.70;;;;;;;;;;5127915;28;20148;-67
2021/01/29 09:17:15;;;;;;;6.22;2.80;;;;;;;;;;5118420;27;20045;-67
2021/01/29 09:19:44;;;;;;;3.00;1.92;;;;;;;;;;5109224;28;20024;-67
2021/01/29 09:22:19;;;;;;;2.75;1.95;;;;;;;;;;5111070;28;20099;-67
2021/01/29 09:24:57;;;;;;;2.65;2.00;;;;;;;;;;5129641;28;20031;-67
2021/01/29 09:27:42;;;;;;;2.65;2.00;;;;;;;;;;5131124;27;20041;-67
2021/01/29 09:30:28;;;;;;;2.17;1.98;;;;;;;;;;5127848;28;20027;-67
2021/01/29 09:32:54;;;;;;;3.13;2.03;;;;;;;;;;5129074;28;20095;-68
2021/01/29 09:35:25;;;;;;;3.10;2.80;;;;;;;;;;5128127;28;20046;-67
2021/01/29 09:37:52;;;;;;;6.00;3.15;;;;;;;;;;5131049;27;20102;-67
2021/01/29 09:40:29;;;;;;;3.47;2.15;;;;;;;;;;5122057;27;20031;-67
2021/01/29 09:43:14;;;;;;;3.70;2.50;;;;;;;;;;5122616;27;20035;-67
2021/01/29 09:45:41;;;;;;;3.55;2.30;;;;;;;;;;5133691;27;20479;-67
2021/01/29 09:48:11;;;;;;;8.05;2.22;;;;;;;;;;5124052;27;20050;-67
2021/01/29 09:50:38;;;;;;;4.25;2.70;;;;;;;;;;5132870;27;20031;-66
2021/01/29 09:53:07;;;;;;;8.52;2.60;;;;;;;;;;5126334;27;20040;-67
2021/01/29 09:55:42;;;;;;;2.92;2.20;;;;;;;;;;5139380;27;20023;-67
2021/01/29 09:58:25;;;;;;;5.80;2.25;;;;;;;;;;5140069;27;20504;-67
2021/01/29 10:01:03;;;;;;;3.78;2.10;;;;;;;;;;5120770;27;20034;-67
2021/01/29 10:03:31;;;;;;;5.35;2.25;;;;;;;;;;5132324;27;20397;-67
2021/01/29 10:06:07;;;;;;;1.88;1.70;;;;;;;;;;5130932;27;20050;-67
2021/01/29 10:08:37;;;;;;;2.95;2.33;;;;;;;;;;5132772;27;20103;-67
2021/01/29 10:11:07;;;;;;;3.17;2.72;;;;;;;;;;5123337;27;20039;-67
2021/01/29 10:13:39;;;;;;;2.28;2.08;;;;;;;;;;5128055;27;20395;-66
2021/01/29 10:16:11;;;;;;;5.25;2.47;;;;;;;;;;5125445;27;20550;-65
2021/01/29 10:18:38;;;;;;;3.00;2.40;;;;;;;;;;5129460;27;20058;-74
2021/01/29 10:21:07;;;;;;;2.03;1.58;;;;;;;;;;5127151;27;20015;-69
2021/01/29 10:23:39;;;;;;;2.92;2.63;;;;;;;;;;5131978;27;20026;-66
2021/01/29 10:26:24;;;;;;;2.33;2.05;;;;;;;;;;5129715;27;20114;-67
2021/01/29 10:29:09;;;;;;;2.42;2.20;;;;;;;;;;5124136;27;20019;-67
2021/01/29 10:31:41;;;;;;;4.20;3.50;;;;;;;;;;5126162;27;20039;-67
2021/01/29 10:34:26;;;;;;;2.40;1.77;;;;;;;;;;5125414;27;20577;-67
2021/01/29 10:36:59;;;;;;;3.95;2.20;;;;;;;;;;5141398;27;20084;-67
2021/01/29 10:39:29;;;;;;;2.10;1.83;;;;;;;;;;5131451;27;20031;-67
2021/01/29 10:42:11;;;;;;;2.45;2.25;;;;;;;;;;5129173;27;20019;-67
2021/01/29 10:44:38;;;;;;;7.93;2.90;;;;;;;;;;5131324;27;20056;-66
2021/01/29 10:47:17;;;;;;;3.63;3.33;;;;;;;;;;5116251;27;20172;-68
2021/01/29 10:49:43;;;;;;;2.65;2.03;;;;;;;;;;5130719;27;20099;-67
2021/01/29 10:52:29;;;;;;;2.25;2.00;;;;;;;;;;5129593;27;20035;-67
2021/01/29 10:54:55;;;;;;;2.25;2.05;;;;;;;;;;5114927;27;20058;-67
2021/01/29 10:57:24;;;;;;;5.72;3.00;;;;;;;;;;5128316;27;20488;-69
2021/01/29 10:59:50;;;;;;;3.78;3.25;;;;;;;;;;5128066;27;20053;-66
2021/01/29 11:02:23;;;;;;;6.20;3.10;;;;;;;;;;5128343;27;20027;-67
2021/01/29 11:04:54;;;;;;;4.90;3.22;;;;;;;;;;5130793;27;20031;-67
2021/01/29 11:07:23;;;;;;;2.70;2.50;;;;;;;;;;5128998;27;20045;-67
2021/01/29 11:10:00;;;;;;;3.08;2.85;;;;;;;;;;5130066;27;20028;-67
2021/01/29 11:12:26;;;;;;;3.20;2.90;;;;;;;;;;5130112;27;20035;-67
2021/01/29 11:14:52;;;;;;;3.10;2.88;;;;;;;;;;5130514;27;20088;-66
2021/01/29 11:17:22;;;;;;;3.63;3.33;;;;;;;;;;5128966;27;20146;-67
2021/01/29 11:19:49;;;;;;;2.97;2.67;;;;;;;;;;5127648;27;20034;-67
2021/01/29 11:22:39;;;;;;;2.83;2.30;;;;;;;;;;5126875;27;20027;-67
2021/01/29 11:25:30;;;;;;;3.63;2.85;;;;;;;;;;5130402;27;20450;-67
2021/01/29 11:28:01;;;;;;;3.03;2.67;;;;;;;;;;5130683;27;20601;-67
2021/01/29 11:30:32;;;;;;;4.35;2.45;;;;;;;;;;5130785;27;20011;-67
2021/01/29 11:33:03;;;;;;;3.45;3.15;;;;;;;;;;5122921;27;20087;-67
2021/01/29 11:35:39;;;;;;;2.85;2.65;;;;;;;;;;5127916;27;20031;-66
2021/01/29 11:38:10;;;;;;;3.08;2.65;;;;;;;;;;5108782;28;20027;-67
2021/01/29 11:40:43;;;;;;;3.20;2.90;;;;;;;;;;5116206;27;20072;-67
2021/01/29 11:43:18;;;;;;;7.78;2.97;;;;;;;;;;5129369;27;20454;-67
2021/01/29 11:45:47;;;;;;;2.78;2.58;;;;;;;;;;5130096;27;20586;-67
2021/01/29 11:48:15;;;;;;;3.75;2.28;;;;;;;;;;5129666;27;20103;-67
2021/01/29 11:50:45;;;;;;;3.50;2.90;;;;;;;;;;5130302;27;20094;-66
2021/01/29 11:53:35;;;;;;;4.45;3.80;;;;;;;;;;5129703;27;20047;-67
2021/01/29 11:56:07;;;;;;;4.90;3.25;;;;;;;;;;5119006;27;20035;-67
2021/01/29 11:58:49;;;;;;;3.40;2.60;;;;;;;;;;5130442;27;20221;-67
2021/01/29 12:01:18;;;;;;;3.72;2.80;;;;;;;;;;5128943;27;20578;-66
2021/01/29 12:04:11;;;;;;;3.25;3.05;;;;;;;;;;5130591;27;20031;-66
2021/01/29 12:06:42;;;;;;;2.95;2.65;;;;;;;;;;5109027;28;20051;-66
2021/01/29 12:09:23;;;;;;;2.35;2.15;;;;;;;;;;5112281;27;20489;-66
2021/01/29 12:12:01;;;;;;;2.53;2.33;;;;;;;;;;5130053;27;20031;-67
2021/01/29 12:14:33;;;;;;;2.38;2.17;;;;;;;;;;5127881;27;20031;-67
2021/01/29 12:17:01;;;;;;;4.15;3.42;;;;;;;;;;5127241;27;20076;-66
2021/01/29 12:19:30;;;;;;;2.88;2.22;;;;;;;;;;5130225;27;20133;-67
2021/01/29 12:22:05;;;;;;;2.70;2.30;;;;;;;;;;5122493;27;20032;-66
2021/01/29 12:24:45;;;;;;;4.10;3.28;;;;;;;;;;5109772;28;20024;-68
2021/01/29 12:27:18;;;;;;;5.07;2.47;;;;;;;;;;5117233;28;20076;-66
2021/01/29 12:29:51;;;;;;;2.92;2.40;;;;;;;;;;5109554;28;20028;-66
2021/01/29 12:32:27;;;;;;;3.60;2.22;;;;;;;;;;5115189;28;20264;-66
2021/01/29 12:34:56;;;;;;;2.75;2.28;;;;;;;;;;5128521;28;20035;-67
2021/01/29 12:37:25;;;;;;;4.00;3.35;;;;;;;;;;5132605;27;20032;-67
2021/01/29 12:39:53;;;;;;;3.22;2.60;;;;;;;;;;5129621;28;20114;-67
2021/01/29 12:42:21;;;;;;;2.83;2.45;;;;;;;;;;5128059;28;20031;-67
2021/01/29 12:44:51;;;;;;;3.75;2.35;;;;;;;;;;5123221;28;20122;-67
2021/01/29 12:47:26;;;;;;;2.50;2.30;;;;;;;;;;5123067;28;20556;-67
2021/01/29 12:49:56;;;;;;;2.28;2.08;;;;;;;;;;5128064;28;20033;-67
2021/01/29 12:52:25;;;;;;;4.05;2.53;;;;;;;;;;5128641;28;20062;-67
2021/01/29 12:54:57;;;;;;;3.90;2.25;;;;;;;;;;5126001;28;20029;-67
2021/01/29 12:57:25;;;;;;;4.55;2.17;;;;;;;;;;5123839;28;20031;-68
2021/01/29 13:00:10;;;;;;;1.92;1.83;;;;;;;;;;5124254;28;20023;-67
2021/01/29 13:02:51;;;;;;;2.58;2.25;;;;;;;;;;5127124;28;20030;-67
2021/01/29 13:05:24;;;;;;;4.00;1.67;;;;;;;;;;5127133;28;20062;-71
2021/01/29 13:08:10;;;;;;;3.22;2.65;;;;;;;;;;5125328;28;20027;-67
2021/01/29 13:10:42;;;;;;;2.10;1.77;;;;;;;;;;5088185;27;20073;-67
2021/01/29 13:13:20;;;;;;;1.60;1.50;;;;;;;;;;5132043;27;20039;-67
2021/01/29 13:15:46;;;;;;;3.53;2.97;;;;;;;;;;5128545;27;20553;-67
2021/01/29 13:18:25;;;;;;;2.47;1.58;;;;;;;;;;5130595;27;20042;-66
2021/01/29 13:20:53;;;;;;;3.08;2.28;;;;;;;;;;5133446;27;20461;-66
2021/01/29 13:23:31;;;;;;;3.78;1.60;;;;;;;;;;5132456;27;20092;-67
2021/01/29 13:25:57;;;;;;;3.78;2.85;;;;;;;;;;5131899;27;20050;-66
2021/01/29 13:28:24;;;;;;;2.42;1.92;;;;;;;;;;5132910;27;20031;-66
2021/01/29 13:30:50;;;;;;;2.55;2.30;;;;;;;;;;5132610;27;20034;-67
2021/01/29 13:33:18;;;;;;;2.78;1.70;;;;;;;;;;5131735;27;20034;-67
2021/01/29 13:35:45;;;;;;;1.45;1.27;;;;;;;;;;5133820;27;20030;-67
2021/01/29 13:38:14;;;;;;;1.92;1.60;;;;;;;;;;5152284;27;20134;-67
2021/01/29 13:40:41;;;;;;;2.42;1.70;;;;;;;;;;5125358;27;20047;-69
2021/01/29 13:43:12;;;;;;;1.58;1.40;;;;;;;;;;5132068;27;20359;-67
2021/01/29 13:45:39;;;;;;;2.20;1.67;;;;;;;;;;5133179;27;20121;-67
2021/01/29 13:48:14;;;;;;;6.22;1.60;;;;;;;;;;5130849;27;20102;-73
2021/01/29 13:50:48;;;;;;;4.78;1.83;;;;;;;;;;5130494;27;20023;-67
2021/01/29 13:53:32;;;;;;;2.05;1.52;;;;;;;;;;5131620;27;20050;-66
2021/01/29 13:56:01;;;;;;;2.10;1.27;;;;;;;;;;5131802;27;20027;-67
2021/01/29 13:58:27;;;;;;;1.67;1.17;;;;;;;;;;5132239;27;20026;-68
2021/01/29 14:01:03;;;;;;;2.45;1.48;;;;;;;;;;5132490;27;20062;-73
2021/01/29 14:03:40;;;;;;;3.30;1.90;;;;;;;;;;5132598;27;20159;-67
2021/01/29 14:06:06;;;;;;;1.17;1.08;;;;;;;;;;5130963;27;20513;-66
2021/01/29 14:08:33;;;;;;;1.48;1.38;;;;;;;;;;5132487;27;20028;-66
2021/01/29 14:10:59;;;;;;;1.98;1.70;;;;;;;;;;5131543;27;20031;-67
2021/01/29 14:13:25;;;;;;;2.47;1.33;;;;;;;;;;5132230;27;20056;-67
2021/01/29 14:16:03;;;;;;;1.52;1.42;;;;;;;;;;5132090;27;20055;-67
2021/01/29 14:18:47;;;;;;;1.48;1.38;;;;;;;;;;5132352;27;20031;-67
2021/01/29 14:21:32;;;;;;;1.40;1.30;;;;;;;;;;5129923;27;20034;-67
2021/01/29 14:23:58;;;;;;;2.53;1.95;;;;;;;;;;5131035;27;20193;-67
2021/01/29 14:26:24;;;;;;;2.38;1.90;;;;;;;;;;5131306;27;20051;-67
2021/01/29 14:28:55;;;;;;;1.92;1.70;;;;;;;;;;5130910;27;20023;-67
2021/01/29 14:31:27;;;;;;;1.63;1.17;;;;;;;;;;5128967;27;20099;-67
2021/01/29 14:34:11;;;;;;;1.38;1.02;;;;;;;;;;5131885;27;20027;-67
2021/01/29 14:36:40;;;;;;;0.82;0.77;;;;;;;;;;5123726;27;20027;-67
2021/01/29 14:39:16;;;;;;;1.75;1.35;;;;;;;;;;5129129;27;20057;-67
2021/01/29 14:42:00;;;;;;;2.58;1.55;;;;;;;;;;5128059;27;20034;-67
2021/01/29 14:44:26;;;;;;;;;;;;;;;;;;5131983;27;20023;-67
2021/01/29 14:47:04;;;;;;;2.47;1.48;;;;;;;;;;5132255;27;20361;-67
2021/01/29 14:49:33;;;;;;;1.52;1.42;;;;;;;;;;5131267;27;20050;-67
2021/01/29 14:52:09;;;;;;;1.77;1.10;;;;;;;;;;5129274;27;20031;-66
2021/01/29 14:54:36;;;;;;;2.50;1.58;;;;;;;;;;5131634;27;20110;-66
2021/01/29 14:57:14;;;;;;;2.38;1.77;;;;;;;;;;5130235;27;20079;-67
2021/01/29 14:59:45;;;;;;;3.25;1.75;;;;;;;;;;5131475;27;20106;-68
2021/01/29 15:02:11;;;;;;;5.65;1.90;;;;;;;;;;5130676;27;20027;-67
2021/01/29 15:04:37;;;;;;;1.25;1.05;;;;;;;;;;5129448;27;20027;-67
2021/01/29 15:07:10;;;;;;;1.90;1.80;;;;;;;;;;5149091;27;20043;-66
2021/01/29 15:09:52;;;;;;;3.15;2.03;;;;;;;;;;5151215;27;20033;-71
2021/01/29 15:12:18;;;;;;;1.58;0.82;;;;;;;;;;5150721;27;20099;-67
2021/01/29 15:14:44;;;;;;;1.35;1.10;;;;;;;;;;5151952;27;20050;-67
2021/01/29 15:17:30;;;;;;;0.82;0.80;;;;;;;;;;5135087;27;20027;-67
2021/01/29 15:20:26;;;;;;;2.03;1.25;;;;;;;;;;5110576;27;20031;-67